Saturday, January 20, 2018, 3:29 AM GMT
Back to Local

CWWE, Western Head, N. S.

Location: , , Canada Lat: 43.983
Local Time: 3:29 AM GMT ( 3:29 GMT) Lon: -64.667
Time Zone: GMT Elev: 29 ft

Show me the last for .
Show Decoded

2018-01-20 03:00 METAR CWWE 200300Z AUTO 27004KT M06/M07 RMK AO1 SOG 09 3002 SLP136 T10601070 =
2018-01-20 02:00 METAR CWWE 200200Z AUTO 26004KT M06/M07 RMK AO1 SOG 09 1007 SLP135 T10601068 =
2018-01-20 01:00 METAR CWWE 200100Z AUTO 27005KT M06/M07 RMK AO1 SOG 09 0007 SLP133 T10551071 =
2018-01-20 00:00 METAR CWWE 200000Z AUTO 26005KT M07/M08 RMK AO1 SOG 09 3011 SLP134 T10741080 =
2018-01-19 23:00 METAR CWWE 192300Z AUTO 26003KT M08/M08 RMK AO1 SOG 09 1012 SLP128 T10761075 =
2018-01-19 22:00 METAR CWWE 192200Z AUTO 30003KT M06/M08 RMK AO1 SOG 09 2013 SLP126 T10581078 =
2018-01-19 21:00 METAR CWWE 192100Z AUTO 31007KT M03/M07 RMK AO1 SOG 09 3012 SLP123 T10341066 =
2018-01-19 20:00 METAR CWWE 192000Z AUTO 30007KT M03/M06 RMK AO1 SOG 09 3006 SLP116 T10261059 =
2018-01-19 19:00 METAR CWWE 191900Z AUTO 30005KT M02/M05 RMK AO1 SOG 09 5000 SLP113 T10221053 =
2018-01-19 18:00 METAR CWWE 191800Z AUTO 31005KT M03/M06 RMK AO1 SOG 09 5008 SLP111 T10281056 =
2018-01-19 17:00 METAR CWWE 191700Z AUTO 30006KT M03/M06 RMK AO1 SOG 09 8004 SLP110 T10271060 =
2018-01-19 16:00 METAR CWWE 191600Z AUTO 30004KT M02/M06 RMK AO1 SOG 08 8002 SLP113 T10191063 =
2018-01-19 15:00 METAR CWWE 191500Z AUTO 05003KT M02/M06 RMK AO1 SOG 08 1011 SLP119 T10201064 =
2018-01-19 14:00 METAR CWWE 191400Z AUTO 35004KT M05/M07 RMK AO1 SOG 09 0014 SLP114 T10511072 =
2018-01-19 13:00 METAR CWWE 191300Z AUTO 32006KT M06/M08 RMK AO1 SOG 09 1025 SLP115 T10631079 =
2018-01-19 12:00 METAR CWWE 191200Z AUTO 32006KT M09/M09 RMK AO1 SOG 09 3025 SLP108 T10861091 =
2018-01-19 11:00 METAR CWWE 191100Z AUTO 32008KT M08/M09 RMK AO1 SOG 09 3016 SLP100 T10791086 =
2018-01-19 10:00 METAR CWWE 191000Z AUTO 32006KT M07/M09 RMK AO1 SOG 09 3003 SLP090 T10741087 =
2018-01-19 09:00 METAR CWWE 190900Z AUTO 35008G15KT M06/M07 RMK AO1 SOG 09 8002 SLP083 T10551072
                 =
2018-01-19 08:00 METAR CWWE 190800Z AUTO 34007KT M06/M07 RMK AO1 SOG 09 0002 SLP084 T10641074 =
2018-01-19 07:00 METAR CWWE 190700Z AUTO 33009KT M06/M07 RMK AO1 SOG 09 3005 SLP087 T10621070 =
2018-01-19 06:00 METAR CWWE 190600Z AUTO 36006KT M06/M06 RMK AO1 SOG 09 3004 SLP085 T10551063 =
2018-01-19 05:00 METAR CWWE 190500Z AUTO 35007KT M05/M06 RMK AO1 SOG 09 6003 SLP082 T10471055 =
2018-01-19 04:00 METAR CWWE 190400Z AUTO 35007KT M04/M06 RMK AO1 SOG 09 5005 SLP082 T10351057 =

Support USWX by starting your Amazon purchase here.